sensor_id;sensor_type;location;lat;lon;timestamp;pressure;altitude;pressure_sealevel;temperature;humidity
74958;BME280;63741;42.624;26.276;2022-12-07T00:01:16;99964.28;;;8.31;82.02
74958;BME280;63741;42.624;26.276;2022-12-07T00:03:45;99959.66;;;8.34;81.11
74958;BME280;63741;42.624;26.276;2022-12-07T00:06:14;99967.56;;;8.34;81.79
74958;BME280;63741;42.624;26.276;2022-12-07T00:08:41;99969.47;;;8.32;82.01
74958;BME280;63741;42.624;26.276;2022-12-07T00:11:15;99960.72;;;8.32;81.91
74958;BME280;63741;42.624;26.276;2022-12-07T00:13:42;99961.84;;;8.28;82.37
74958;BME280;63741;42.624;26.276;2022-12-07T00:16:12;99967.66;;;8.33;80.95
74958;BME280;63741;42.624;26.276;2022-12-07T00:18:40;99966.63;;;8.35;81.42
74958;BME280;63741;42.624;26.276;2022-12-07T00:21:14;99963.81;;;8.39;81.43
74958;BME280;63741;42.624;26.276;2022-12-07T00:23:43;99967.31;;;8.39;81.37
74958;BME280;63741;42.624;26.276;2022-12-07T00:26:12;99972.09;;;8.32;81.93
74958;BME280;63741;42.624;26.276;2022-12-07T00:28:40;99976.16;;;8.24;81.98
74958;BME280;63741;42.624;26.276;2022-12-07T00:31:09;99978.97;;;8.21;82.27
74958;BME280;63741;42.624;26.276;2022-12-07T00:33:36;99973.88;;;8.32;82.27
74958;BME280;63741;42.624;26.276;2022-12-07T00:36:07;99968.78;;;8.29;81.96
74958;BME280;63741;42.624;26.276;2022-12-07T00:38:35;99967.09;;;8.28;81.92
74958;BME280;63741;42.624;26.276;2022-12-07T00:41:22;99970.03;;;8.23;81.81
74958;BME280;63741;42.624;26.276;2022-12-07T00:43:50;99961.47;;;8.20;82.51
74958;BME280;63741;42.624;26.276;2022-12-07T00:46:18;99964.47;;;8.28;82.32
74958;BME280;63741;42.624;26.276;2022-12-07T00:48:47;99962.69;;;8.28;81.81
74958;BME280;63741;42.624;26.276;2022-12-07T00:51:15;99966.81;;;8.32;82.08
74958;BME280;63741;42.624;26.276;2022-12-07T00:53:42;99964.38;;;8.29;81.50
74958;BME280;63741;42.624;26.276;2022-12-07T00:56:15;99965.50;;;8.25;81.21
74958;BME280;63741;42.624;26.276;2022-12-07T00:58:43;99960.22;;;8.25;82.34
74958;BME280;63741;42.624;26.276;2022-12-07T01:01:10;99959.50;;;8.38;81.73
74958;BME280;63741;42.624;26.276;2022-12-07T01:03:38;99966.81;;;8.32;81.09
74958;BME280;63741;42.624;26.276;2022-12-07T01:06:05;99957.59;;;8.25;81.65
74958;BME280;63741;42.624;26.276;2022-12-07T01:08:33;99946.22;;;8.25;82.07
74958;BME280;63741;42.624;26.276;2022-12-07T01:11:06;99947.16;;;8.24;81.90
74958;BME280;63741;42.624;26.276;2022-12-07T01:13:34;99941.41;;;8.31;82.35
74958;BME280;63741;42.624;26.276;2022-12-07T01:16:04;99937.28;;;8.27;81.46
74958;BME280;63741;42.624;26.276;2022-12-07T01:18:33;99924.41;;;8.23;82.14
74958;BME280;63741;42.624;26.276;2022-12-07T01:21:16;99922.06;;;8.18;81.59
74958;BME280;63741;42.624;26.276;2022-12-07T01:23:44;99918.09;;;8.11;82.48
74958;BME280;63741;42.624;26.276;2022-12-07T01:26:13;99916.59;;;8.07;81.82
74958;BME280;63741;42.624;26.276;2022-12-07T01:28:40;99911.31;;;8.07;81.48
74958;BME280;63741;42.624;26.276;2022-12-07T01:31:10;99909.81;;;8.03;81.99
74958;BME280;63741;42.624;26.276;2022-12-07T01:33:39;99906.56;;;7.99;82.82
74958;BME280;63741;42.624;26.276;2022-12-07T01:36:20;99906.84;;;7.95;82.45
74958;BME280;63741;42.624;26.276;2022-12-07T01:38:49;99904.78;;;8.00;82.76
74958;BME280;63741;42.624;26.276;2022-12-07T01:41:19;99901.59;;;7.95;82.45
74958;BME280;63741;42.624;26.276;2022-12-07T01:46:34;99903.81;;;8.01;82.09
74958;BME280;63741;42.624;26.276;2022-12-07T01:49:04;99902.59;;;7.92;82.03
74958;BME280;63741;42.624;26.276;2022-12-07T01:51:33;99899.69;;;7.97;82.57
74958;BME280;63741;42.624;26.276;2022-12-07T01:54:01;99902.50;;;7.94;82.79
74958;BME280;63741;42.624;26.276;2022-12-07T01:56:29;99898.94;;;7.95;82.27
74958;BME280;63741;42.624;26.276;2022-12-07T01:58:56;99894.31;;;7.98;82.51
74958;BME280;63741;42.624;26.276;2022-12-07T02:01:24;99887.09;;;7.88;82.95
74958;BME280;63741;42.624;26.276;2022-12-07T02:03:52;99895.38;;;7.81;83.51
74958;BME280;63741;42.624;26.276;2022-12-07T02:06:23;99884.84;;;7.81;83.14
74958;BME280;63741;42.624;26.276;2022-12-07T02:08:51;99883.13;;;7.80;82.84
74958;BME280;63741;42.624;26.276;2022-12-07T02:11:19;99882.41;;;7.78;83.81
74958;BME280;63741;42.624;26.276;2022-12-07T02:13:47;99882.00;;;7.84;83.37
74958;BME280;63741;42.624;26.276;2022-12-07T02:16:32;99876.38;;;7.91;83.11
74958;BME280;63741;42.624;26.276;2022-12-07T02:27:46;99889.44;;;7.92;82.56
74958;BME280;63741;42.624;26.276;2022-12-07T02:30:17;99880.59;;;7.93;83.04
74958;BME280;63741;42.624;26.276;2022-12-07T02:35:40;99878.78;;;7.94;82.53
74958;BME280;63741;42.624;26.276;2022-12-07T02:38:29;99875.59;;;7.89;83.24
74958;BME280;63741;42.624;26.276;2022-12-07T02:43:38;99868.47;;;7.91;82.71
74958;BME280;63741;42.624;26.276;2022-12-07T02:46:10;99877.09;;;7.93;82.49
74958;BME280;63741;42.624;26.276;2022-12-07T02:48:41;99870.03;;;7.93;82.58
74958;BME280;63741;42.624;26.276;2022-12-07T02:51:09;99867.44;;;7.79;83.34
74958;BME280;63741;42.624;26.276;2022-12-07T02:53:41;99864.81;;;7.65;83.76
74958;BME280;63741;42.624;26.276;2022-12-07T02:56:21;99863.78;;;7.81;83.04
74958;BME280;63741;42.624;26.276;2022-12-07T03:01:43;99868.00;;;7.84;83.83
74958;BME280;63741;42.624;26.276;2022-12-07T03:04:29;99876.38;;;7.91;82.98
74958;BME280;63741;42.624;26.276;2022-12-07T03:07:06;99871.19;;;7.89;83.00
74958;BME280;63741;42.624;26.276;2022-12-07T03:09:53;99874.50;;;7.78;83.23
74958;BME280;63741;42.624;26.276;2022-12-07T03:12:57;99872.41;;;7.83;83.69
74958;BME280;63741;42.624;26.276;2022-12-07T03:18:11;99866.56;;;7.93;82.94
74958;BME280;63741;42.624;26.276;2022-12-07T03:20:41;99868.25;;;7.94;83.16
74958;BME280;63741;42.624;26.276;2022-12-07T03:23:12;99873.38;;;7.82;83.48
74958;BME280;63741;42.624;26.276;2022-12-07T03:25:47;99877.22;;;7.91;83.78
74958;BME280;63741;42.624;26.276;2022-12-07T03:28:16;99872.69;;;7.93;83.39
74958;BME280;63741;42.624;26.276;2022-12-07T03:39:04;99866.56;;;7.93;82.39
74958;BME280;63741;42.624;26.276;2022-12-07T03:41:34;99855.75;;;7.97;82.02
74958;BME280;63741;42.624;26.276;2022-12-07T03:44:10;99867.41;;;7.93;82.99
74958;BME280;63741;42.624;26.276;2022-12-07T03:46:56;99858.13;;;7.88;83.13
74958;BME280;63741;42.624;26.276;2022-12-07T03:49:32;99863.09;;;7.92;83.52
74958;BME280;63741;42.624;26.276;2022-12-07T03:52:31;99860.19;;;7.82;83.04
74958;BME280;63741;42.624;26.276;2022-12-07T03:57:37;99862.44;;;7.89;83.31
74958;BME280;63741;42.624;26.276;2022-12-07T04:00:06;99859.91;;;7.87;83.33
74958;BME280;63741;42.624;26.276;2022-12-07T04:02:41;99863.09;;;7.92;82.72
74958;BME280;63741;42.624;26.276;2022-12-07T04:05:08;99860.16;;;7.97;82.77
74958;BME280;63741;42.624;26.276;2022-12-07T04:07:36;99850.88;;;7.91;82.59
74958;BME280;63741;42.624;26.276;2022-12-07T04:10:04;99854.16;;;7.95;82.65
74958;BME280;63741;42.624;26.276;2022-12-07T04:12:31;99844.66;;;7.92;82.48
74958;BME280;63741;42.624;26.276;2022-12-07T04:14:58;99851.53;;;7.95;82.67
74958;BME280;63741;42.624;26.276;2022-12-07T04:17:25;99850.94;;;8.04;82.46
74958;BME280;63741;42.624;26.276;2022-12-07T04:19:52;99844.91;;;8.02;82.03
74958;BME280;63741;42.624;26.276;2022-12-07T04:22:19;99849.53;;;7.98;81.96
74958;BME280;63741;42.624;26.276;2022-12-07T04:24:45;99853.09;;;7.97;82.18
74958;BME280;63741;42.624;26.276;2022-12-07T04:27:12;99846.06;;;7.98;83.26
74958;BME280;63741;42.624;26.276;2022-12-07T04:29:39;99846.28;;;7.95;82.33
74958;BME280;63741;42.624;26.276;2022-12-07T04:32:06;99844.78;;;7.91;83.50
74958;BME280;63741;42.624;26.276;2022-12-07T04:34:34;99839.69;;;7.88;83.57
74958;BME280;63741;42.624;26.276;2022-12-07T04:37:01;99852.09;;;7.85;82.79
74958;BME280;63741;42.624;26.276;2022-12-07T04:39:30;99847.09;;;7.81;83.09
74958;BME280;63741;42.624;26.276;2022-12-07T04:41:57;99850.88;;;7.91;83.18
74958;BME280;63741;42.624;26.276;2022-12-07T04:44:26;99851.59;;;7.93;82.89
74958;BME280;63741;42.624;26.276;2022-12-07T04:46:53;99851.34;;;7.83;83.76
74958;BME280;63741;42.624;26.276;2022-12-07T04:49:21;99851.16;;;7.87;83.42
74958;BME280;63741;42.624;26.276;2022-12-07T04:51:48;99850.41;;;7.84;82.82
74958;BME280;63741;42.624;26.276;2022-12-07T04:54:15;99847.09;;;7.95;82.50
74958;BME280;63741;42.624;26.276;2022-12-07T04:56:43;99846.06;;;7.98;82.67
74958;BME280;63741;42.624;26.276;2022-12-07T04:59:14;99843.53;;;7.96;82.39
74958;BME280;63741;42.624;26.276;2022-12-07T05:01:41;99837.41;;;7.96;82.87
74958;BME280;63741;42.624;26.276;2022-12-07T05:04:09;99851.13;;;8.01;82.88
74958;BME280;63741;42.624;26.276;2022-12-07T05:06:35;99847.94;;;7.96;82.88
74958;BME280;63741;42.624;26.276;2022-12-07T05:09:03;99856.16;;;7.91;82.86
74958;BME280;63741;42.624;26.276;2022-12-07T05:11:30;99859.16;;;7.85;83.75
74958;BME280;63741;42.624;26.276;2022-12-07T05:14:16;99855.78;;;7.83;83.62
74958;BME280;63741;42.624;26.276;2022-12-07T05:16:45;99856.78;;;7.80;82.45
74958;BME280;63741;42.624;26.276;2022-12-07T05:19:13;99855.78;;;7.83;82.43
74958;BME280;63741;42.624;26.276;2022-12-07T05:21:40;99849.44;;;7.85;82.51
74958;BME280;63741;42.624;26.276;2022-12-07T05:24:09;99851.06;;;7.88;82.88
74958;BME280;63741;42.624;26.276;2022-12-07T05:26:36;99851.44;;;7.96;81.55
74958;BME280;63741;42.624;26.276;2022-12-07T05:29:03;99849.53;;;7.98;82.30
74958;BME280;63741;42.624;26.276;2022-12-07T05:31:30;99844.81;;;8.03;81.85
74958;BME280;63741;42.624;26.276;2022-12-07T05:33:58;99851.13;;;8.01;82.43
74958;BME280;63741;42.624;26.276;2022-12-07T05:36:24;99856.81;;;7.95;82.37
74958;BME280;63741;42.624;26.276;2022-12-07T05:38:51;99854.25;;;7.93;82.81
74958;BME280;63741;42.624;26.276;2022-12-07T05:41:19;99847.41;;;7.91;82.13
74958;BME280;63741;42.624;26.276;2022-12-07T05:44:05;99860.56;;;7.91;82.28
74958;BME280;63741;42.624;26.276;2022-12-07T05:46:32;99856.59;;;7.98;82.46
74958;BME280;63741;42.624;26.276;2022-12-07T05:48:59;99856.94;;;8.06;82.27
74958;BME280;63741;42.624;26.276;2022-12-07T05:51:27;99864.22;;;7.88;83.38
74958;BME280;63741;42.624;26.276;2022-12-07T05:53:54;99860.28;;;7.81;83.47
74958;BME280;63741;42.624;26.276;2022-12-07T05:56:20;99857.47;;;7.70;83.39
74958;BME280;63741;42.624;26.276;2022-12-07T05:58:47;99852.50;;;7.65;83.83
74958;BME280;63741;42.624;26.276;2022-12-07T06:01:33;99865.53;;;7.81;83.23
74958;BME280;63741;42.624;26.276;2022-12-07T06:04:00;99869.69;;;7.99;83.59
74958;BME280;63741;42.624;26.276;2022-12-07T06:06:26;99864.44;;;8.12;83.26
74958;BME280;63741;42.624;26.276;2022-12-07T06:08:53;99866.72;;;8.18;82.92
74958;BME280;63741;42.624;26.276;2022-12-07T06:11:20;99863.03;;;8.21;82.86
74958;BME280;63741;42.624;26.276;2022-12-07T06:14:06;99868.34;;;8.06;82.94
74958;BME280;63741;42.624;26.276;2022-12-07T06:16:32;99865.44;;;7.97;82.75
74958;BME280;63741;42.624;26.276;2022-12-07T06:18:59;99867.34;;;7.95;83.13
74958;BME280;63741;42.624;26.276;2022-12-07T06:21:26;99866.69;;;7.91;83.02
74958;BME280;63741;42.624;26.276;2022-12-07T06:23:54;99875.50;;;7.90;83.38
74958;BME280;63741;42.624;26.276;2022-12-07T06:26:21;99877.75;;;7.96;83.21
74958;BME280;63741;42.624;26.276;2022-12-07T06:28:48;99877.00;;;8.08;83.20
74958;BME280;63741;42.624;26.276;2022-12-07T06:31:15;99884.03;;;8.08;82.94
74958;BME280;63741;42.624;26.276;2022-12-07T06:33:42;99885.09;;;8.05;82.72
74958;BME280;63741;42.624;26.276;2022-12-07T06:36:09;99888.94;;;8.14;81.91
74958;BME280;63741;42.624;26.276;2022-12-07T06:38:36;99883.78;;;8.13;83.07
74958;BME280;63741;42.624;26.276;2022-12-07T06:41:04;99888.56;;;8.06;82.34
74958;BME280;63741;42.624;26.276;2022-12-07T06:43:31;99881.88;;;8.15;82.25
74958;BME280;63741;42.624;26.276;2022-12-07T06:45:58;99888.09;;;8.14;82.77
74958;BME280;63741;42.624;26.276;2022-12-07T06:48:25;99879.19;;;8.29;82.03
74958;BME280;63741;42.624;26.276;2022-12-07T06:50:51;99883.63;;;8.28;81.37
74958;BME280;63741;42.624;26.276;2022-12-07T06:53:21;99883.31;;;8.33;81.39
74958;BME280;63741;42.624;26.276;2022-12-07T06:55:48;99875.91;;;8.40;81.18
74958;BME280;63741;42.624;26.276;2022-12-07T06:58:16;99884.38;;;8.45;80.90
74958;BME280;63741;42.624;26.276;2022-12-07T07:00:44;99887.06;;;8.57;81.22
74958;BME280;63741;42.624;26.276;2022-12-07T07:03:11;99887.38;;;8.66;81.06
74958;BME280;63741;42.624;26.276;2022-12-07T07:05:38;99884.66;;;8.67;80.98
74958;BME280;63741;42.624;26.276;2022-12-07T07:08:05;99878.09;;;8.60;80.78
74958;BME280;63741;42.624;26.276;2022-12-07T07:10:49;99884.34;;;8.72;81.03
74958;BME280;63741;42.624;26.276;2022-12-07T07:13:16;99887.84;;;8.72;80.43
74958;BME280;63741;42.624;26.276;2022-12-07T07:15:43;99894.38;;;8.67;80.90
74958;BME280;63741;42.624;26.276;2022-12-07T07:18:10;99888.88;;;8.70;80.60
74958;BME280;63741;42.624;26.276;2022-12-07T07:20:37;99891.28;;;8.60;80.91
74958;BME280;63741;42.624;26.276;2022-12-07T07:23:05;99883.66;;;8.55;81.15
74958;BME280;63741;42.624;26.276;2022-12-07T07:25:32;99888.53;;;8.61;80.76
74958;BME280;63741;42.624;26.276;2022-12-07T07:27:59;99885.38;;;8.69;80.23
74958;BME280;63741;42.624;26.276;2022-12-07T07:30:26;99878.56;;;8.79;79.60
74958;BME280;63741;42.624;26.276;2022-12-07T07:32:58;99874.47;;;8.88;78.90
74958;BME280;63741;42.624;26.276;2022-12-07T07:35:26;99879.00;;;8.86;78.59
74958;BME280;63741;42.624;26.276;2022-12-07T07:37:53;99883.50;;;9.11;77.11
74958;BME280;63741;42.624;26.276;2022-12-07T07:40:20;99884.03;;;9.16;78.23
74958;BME280;63741;42.624;26.276;2022-12-07T07:42:53;99880.66;;;9.27;77.45
74958;BME280;63741;42.624;26.276;2022-12-07T07:45:22;99881.63;;;9.39;77.57
74958;BME280;63741;42.624;26.276;2022-12-07T07:47:49;99888.91;;;9.48;76.44
74958;BME280;63741;42.624;26.276;2022-12-07T07:50:17;99886.66;;;9.67;76.92
74958;BME280;63741;42.624;26.276;2022-12-07T07:52:45;99885.28;;;9.74;75.20
74958;BME280;63741;42.624;26.276;2022-12-07T07:55:12;99888.31;;;9.94;74.65
74958;BME280;63741;42.624;26.276;2022-12-07T07:57:40;99884.69;;;10.07;73.95
74958;BME280;63741;42.624;26.276;2022-12-07T08:00:09;99883.06;;;10.30;73.77
74958;BME280;63741;42.624;26.276;2022-12-07T08:02:43;99875.38;;;10.51;72.81
74958;BME280;63741;42.624;26.276;2022-12-07T08:05:10;99883.03;;;10.67;72.45
74958;BME280;63741;42.624;26.276;2022-12-07T08:07:39;99871.94;;;10.97;71.71
74958;BME280;63741;42.624;26.276;2022-12-07T08:10:07;99885.19;;;10.97;71.26
74958;BME280;63741;42.624;26.276;2022-12-07T08:12:38;99889.69;;;11.19;70.44
74958;BME280;63741;42.624;26.276;2022-12-07T08:15:29;99887.03;;;11.08;70.00
74958;BME280;63741;42.624;26.276;2022-12-07T08:17:57;99891.50;;;10.83;71.69
74958;BME280;63741;42.624;26.276;2022-12-07T08:20:24;99884.66;;;10.57;71.97
74958;BME280;63741;42.624;26.276;2022-12-07T08:22:51;99884.44;;;10.36;73.18
74958;BME280;63741;42.624;26.276;2022-12-07T08:25:19;99887.94;;;10.24;73.48
74958;BME280;63741;42.624;26.276;2022-12-07T08:27:46;99890.50;;;10.12;74.38
74958;BME280;63741;42.624;26.276;2022-12-07T08:30:13;99893.03;;;10.14;73.00
74958;BME280;63741;42.624;26.276;2022-12-07T08:32:40;99897.50;;;10.13;74.00
74958;BME280;63741;42.624;26.276;2022-12-07T08:35:07;99891.78;;;10.07;73.89
74958;BME280;63741;42.624;26.276;2022-12-07T08:37:34;99884.63;;;9.96;74.82
74958;BME280;63741;42.624;26.276;2022-12-07T08:40:02;99889.41;;;9.91;75.51
74958;BME280;63741;42.624;26.276;2022-12-07T08:42:30;99886.75;;;9.91;73.86
74958;BME280;63741;42.624;26.276;2022-12-07T08:45:09;99885.03;;;10.03;73.20
74958;BME280;63741;42.624;26.276;2022-12-07T08:47:40;99876.63;;;10.22;72.27
74958;BME280;63741;42.624;26.276;2022-12-07T08:50:09;99870.78;;;10.42;71.77
74958;BME280;63741;42.624;26.276;2022-12-07T08:52:37;99877.53;;;10.46;71.56
74958;BME280;63741;42.624;26.276;2022-12-07T08:55:04;99872.69;;;10.64;71.37
74958;BME280;63741;42.624;26.276;2022-12-07T08:57:33;99869.47;;;10.72;70.39
74958;BME280;63741;42.624;26.276;2022-12-07T09:00:01;99864.84;;;10.86;69.26
74958;BME280;63741;42.624;26.276;2022-12-07T09:02:30;99873.47;;;10.88;69.93
74958;BME280;63741;42.624;26.276;2022-12-07T09:04:57;99857.03;;;10.61;71.29
74958;BME280;63741;42.624;26.276;2022-12-07T09:07:25;99862.44;;;10.59;70.58
74958;BME280;63741;42.624;26.276;2022-12-07T09:09:52;99855.91;;;10.52;71.52
74958;BME280;63741;42.624;26.276;2022-12-07T09:12:19;99841.31;;;10.71;70.61
74958;BME280;63741;42.624;26.276;2022-12-07T09:14:46;99854.75;;;10.92;70.64
74958;BME280;63741;42.624;26.276;2022-12-07T09:17:13;99856.56;;;11.02;70.99
74958;BME280;63741;42.624;26.276;2022-12-07T09:19:40;99850.81;;;11.08;71.30
74958;BME280;63741;42.624;26.276;2022-12-07T09:22:09;99845.66;;;11.29;69.81
74958;BME280;63741;42.624;26.276;2022-12-07T09:24:36;99839.19;;;11.78;69.47
74958;BME280;63741;42.624;26.276;2022-12-07T09:27:03;99839.34;;;12.43;66.81
74958;BME280;63741;42.624;26.276;2022-12-07T09:29:29;99837.28;;;12.78;66.05
74958;BME280;63741;42.624;26.276;2022-12-07T09:31:56;99831.84;;;13.01;64.33
74958;BME280;63741;42.624;26.276;2022-12-07T09:34:23;99834.28;;;12.93;65.73
74958;BME280;63741;42.624;26.276;2022-12-07T09:36:51;99834.09;;;12.84;65.32
74958;BME280;63741;42.624;26.276;2022-12-07T09:39:17;99824.78;;;12.69;64.01
74958;BME280;63741;42.624;26.276;2022-12-07T09:41:45;99832.41;;;12.83;63.30
74958;BME280;63741;42.624;26.276;2022-12-07T09:44:15;99827.13;;;13.04;62.78
74958;BME280;63741;42.624;26.276;2022-12-07T09:46:44;99819.50;;;13.21;61.30
74958;BME280;63741;42.624;26.276;2022-12-07T09:49:16;99819.31;;;13.12;61.62
74958;BME280;63741;42.624;26.276;2022-12-07T09:51:45;99800.63;;;12.93;62.35
74958;BME280;63741;42.624;26.276;2022-12-07T09:54:14;99811.19;;;13.04;62.67
74958;BME280;63741;42.624;26.276;2022-12-07T09:56:43;99802.81;;;13.09;62.26
74958;BME280;63741;42.624;26.276;2022-12-07T09:59:17;99805.59;;;13.28;61.82
74958;BME280;63741;42.624;26.276;2022-12-07T10:01:47;99799.88;;;13.54;60.50
74958;BME280;63741;42.624;26.276;2022-12-07T10:04:26;99799.81;;;13.44;59.14
74958;BME280;63741;42.624;26.276;2022-12-07T10:06:54;99796.78;;;13.49;60.01
74958;BME280;63741;42.624;26.276;2022-12-07T10:09:22;99793.03;;;13.61;59.97
74958;BME280;63741;42.624;26.276;2022-12-07T10:12:18;99795.41;;;13.64;59.23
74958;BME280;63741;42.624;26.276;2022-12-07T10:17:38;99783.00;;;13.44;60.56
74958;BME280;63741;42.624;26.276;2022-12-07T10:20:22;99786.97;;;13.49;60.56
74958;BME280;63741;42.624;26.276;2022-12-07T10:25:26;99775.56;;;13.68;59.81
74958;BME280;63741;42.624;26.276;2022-12-07T10:28:03;99778.56;;;13.84;57.92
74958;BME280;63741;42.624;26.276;2022-12-07T10:33:30;99770.41;;;13.76;57.67
74958;BME280;63741;42.624;26.276;2022-12-07T10:35:59;99771.28;;;13.86;56.24
74958;BME280;63741;42.624;26.276;2022-12-07T10:38:28;99767.81;;;13.55;57.90
74958;BME280;63741;42.624;26.276;2022-12-07T10:41:06;99774.09;;;13.45;57.89
74958;BME280;63741;42.624;26.276;2022-12-07T10:43:33;99770.72;;;13.93;58.27
74958;BME280;63741;42.624;26.276;2022-12-07T10:52:00;99759.38;;;13.81;57.42
74958;BME280;63741;42.624;26.276;2022-12-07T10:57:53;99758.97;;;13.35;58.95
74958;BME280;63741;42.624;26.276;2022-12-07T11:00:22;99743.16;;;13.44;59.96
74958;BME280;63741;42.624;26.276;2022-12-07T11:08:44;99747.56;;;13.24;59.98
74958;BME280;63741;42.624;26.276;2022-12-07T11:14:05;99743.59;;;12.87;59.41
74958;BME280;63741;42.624;26.276;2022-12-07T11:19:54;99727.81;;;12.65;59.39
74958;BME280;63741;42.624;26.276;2022-12-07T11:29:03;99725.28;;;12.63;59.58
74958;BME280;63741;42.624;26.276;2022-12-07T11:31:36;99727.59;;;12.78;60.20
74958;BME280;63741;42.624;26.276;2022-12-07T11:34:20;99725.75;;;12.36;59.89
74958;BME280;63741;42.624;26.276;2022-12-07T11:36:54;99718.53;;;12.38;60.59
74958;BME280;63741;42.624;26.276;2022-12-07T11:39:33;99716.78;;;12.49;60.05
74958;BME280;63741;42.624;26.276;2022-12-07T11:42:23;99713.88;;;12.52;60.71
74958;BME280;63741;42.624;26.276;2022-12-07T11:45:02;99707.84;;;12.71;59.24
74958;BME280;63741;42.624;26.276;2022-12-07T11:47:46;99714.44;;;12.76;59.36
74958;BME280;63741;42.624;26.276;2022-12-07T12:06:27;99701.53;;;13.54;57.00
74958;BME280;63741;42.624;26.276;2022-12-07T12:09:04;99691.66;;;13.95;56.91
74958;BME280;63741;42.624;26.276;2022-12-07T12:22:54;99670.16;;;13.38;57.34
74958;BME280;63741;42.624;26.276;2022-12-07T12:25:37;99669.56;;;13.25;56.49
74958;BME280;63741;42.624;26.276;2022-12-07T12:28:05;99666.22;;;13.32;56.24
74958;BME280;63741;42.624;26.276;2022-12-07T12:30:38;99657.00;;;13.36;56.46
74958;BME280;63741;42.624;26.276;2022-12-07T12:33:17;99660.25;;;13.40;55.95
74958;BME280;63741;42.624;26.276;2022-12-07T12:38:52;99647.66;;;13.52;58.64
74958;BME280;63741;42.624;26.276;2022-12-07T12:46:47;99656.66;;;13.80;56.03
74958;BME280;63741;42.624;26.276;2022-12-07T12:51:44;99661.28;;;13.78;56.95
74958;BME280;63741;42.624;26.276;2022-12-07T12:59:38;99665.00;;;15.09;54.19
74958;BME280;63741;42.624;26.276;2022-12-07T13:10:33;99643.75;;;17.71;45.22
74958;BME280;63741;42.624;26.276;2022-12-07T13:31:45;99651.97;;;12.21;62.21
74958;BME280;63741;42.624;26.276;2022-12-07T13:34:33;99662.38;;;12.12;61.78
74958;BME280;63741;42.624;26.276;2022-12-07T13:42:44;99658.50;;;11.73;63.67
74958;BME280;63741;42.624;26.276;2022-12-07T13:45:24;99650.63;;;11.62;64.73
74958;BME280;63741;42.624;26.276;2022-12-07T13:48:41;99655.47;;;11.46;64.30
74958;BME280;63741;42.624;26.276;2022-12-07T13:51:18;99653.44;;;11.38;64.75
74958;BME280;63741;42.624;26.276;2022-12-07T13:53:47;99651.28;;;11.32;64.72
74958;BME280;63741;42.624;26.276;2022-12-07T13:56:14;99655.50;;;11.34;65.15
74958;BME280;63741;42.624;26.276;2022-12-07T13:58:42;99659.72;;;11.26;66.05
74958;BME280;63741;42.624;26.276;2022-12-07T14:01:09;99660.56;;;11.26;65.66
74958;BME280;63741;42.624;26.276;2022-12-07T14:03:36;99663.44;;;11.23;65.79
74958;BME280;63741;42.624;26.276;2022-12-07T14:06:17;99666.22;;;11.22;65.96
74958;BME280;63741;42.624;26.276;2022-12-07T14:08:45;99662.63;;;11.23;66.05
74958;BME280;63741;42.624;26.276;2022-12-07T14:11:20;99673.91;;;11.25;65.80
74958;BME280;63741;42.624;26.276;2022-12-07T14:13:56;99671.06;;;11.17;66.61
74958;BME280;63741;42.624;26.276;2022-12-07T14:16:28;99673.44;;;11.20;66.38
74958;BME280;63741;42.624;26.276;2022-12-07T14:18:57;99681.03;;;11.13;67.02
74958;BME280;63741;42.624;26.276;2022-12-07T14:21:27;99674.56;;;10.95;67.53
74958;BME280;63741;42.624;26.276;2022-12-07T14:24:18;99683.22;;;10.85;67.61
74958;BME280;63741;42.624;26.276;2022-12-07T14:26:47;99669.25;;;10.83;67.95
74958;BME280;63741;42.624;26.276;2022-12-07T14:31:52;99674.78;;;10.69;68.43
74958;BME280;63741;42.624;26.276;2022-12-07T14:34:23;99674.06;;;10.78;67.84
74958;BME280;63741;42.624;26.276;2022-12-07T14:36:51;99664.91;;;10.71;68.42
74958;BME280;63741;42.624;26.276;2022-12-07T14:39:18;99671.75;;;10.62;68.52
74958;BME280;63741;42.624;26.276;2022-12-07T14:41:45;99667.91;;;10.55;68.67
74958;BME280;63741;42.624;26.276;2022-12-07T14:44:20;99667.41;;;10.50;68.77
74958;BME280;63741;42.624;26.276;2022-12-07T14:46:51;99661.25;;;10.38;69.26
74958;BME280;63741;42.624;26.276;2022-12-07T14:49:38;99662.78;;;10.30;70.09
74958;BME280;63741;42.624;26.276;2022-12-07T14:52:11;99665.03;;;10.23;70.03
74958;BME280;63741;42.624;26.276;2022-12-07T14:55:00;99661.56;;;10.23;70.04
74958;BME280;63741;42.624;26.276;2022-12-07T14:57:27;99659.44;;;10.28;70.15
74958;BME280;63741;42.624;26.276;2022-12-07T14:59:54;99662.56;;;10.33;69.83
74958;BME280;63741;42.624;26.276;2022-12-07T15:02:21;99659.09;;;10.32;69.87
74958;BME280;63741;42.624;26.276;2022-12-07T15:04:48;99666.88;;;10.34;70.30
74958;BME280;63741;42.624;26.276;2022-12-07T15:07:19;99676.34;;;10.25;70.94
74958;BME280;63741;42.624;26.276;2022-12-07T15:09:47;99663.19;;;10.12;71.52
74958;BME280;63741;42.624;26.276;2022-12-07T15:12:15;99666.94;;;10.10;71.50
74958;BME280;63741;42.624;26.276;2022-12-07T15:14:42;99676.13;;;10.04;71.45
74958;BME280;63741;42.624;26.276;2022-12-07T15:17:10;99676.13;;;10.04;71.33
74958;BME280;63741;42.624;26.276;2022-12-07T15:19:55;99668.88;;;10.19;70.84
74958;BME280;63741;42.624;26.276;2022-12-07T15:22:22;99677.81;;;10.29;70.26
74958;BME280;63741;42.624;26.276;2022-12-07T15:24:49;99670.63;;;10.31;69.82
74958;BME280;63741;42.624;26.276;2022-12-07T15:27:15;99673.19;;;10.20;70.73
74958;BME280;63741;42.624;26.276;2022-12-07T15:29:42;99673.66;;;10.14;70.80
74958;BME280;63741;42.624;26.276;2022-12-07T15:32:09;99673.63;;;10.03;71.93
74958;BME280;63741;42.624;26.276;2022-12-07T15:34:36;99667.56;;;9.90;72.07
74958;BME280;63741;42.624;26.276;2022-12-07T15:37:07;99674.56;;;10.02;72.06
74958;BME280;63741;42.624;26.276;2022-12-07T15:39:36;99677.00;;;10.05;72.23
74958;BME280;63741;42.624;26.276;2022-12-07T15:42:03;99684.31;;;10.01;72.47